• Join FlightAware (Why Join?)
  • Login
  • US Flag 
03:40PM EST


 

Airport Tracker/Info


-or-


 

Live Flight TrackerFlight Track Log ✈ UPS1337 ✈ 07-Jun-2014 ✈ KRDU - KSDF

Flight Track Log - Related Links

Times and Time Zones

All times are in EDT time to prevent confusion due to time zone crossing. See the UPS1337 flight status page for this flight to view local times or setup timezone preferences in your user account.

Time Position Orientation Groundspeed Altitude Reporting Facility
EDT Latitude Longitude Course Direction KTS MPH feet Rate Location/Type
12:10AM 35.8989 -78.7742 264° West 171 197 1,600  Level Washington Center
12:11AM 35.9200 -78.7647 20° North 178 205 2,600 2,460 Climbing Washington Center
12:12AM 35.9797 -78.7953 338° Northwest 250 288 5,900 2,880 Climbing Washington Center
12:13AM 35.9583 -78.8869 254° West 225 259 9,200 2,640 Climbing Washington Center
12:14AM 36.0196 -78.9742 270° West  Level Estimated
12:15AM 36.0622 -79.0940 264° West  Level Estimated
12:16AM 35.8666 -78.9133 264° West  Level FlightAware Approximate
12:19AM 35.8044 -79.6111 258° West 428 493 23,500  Level FlightAware ADS-B (KINT)
12:20AM 35.7810 -79.7482 258° West 438 504 25,100 1,680 Climbing FlightAware ADS-B (KINT)
12:21AM 35.7571 -79.8854 258° West 445 512 26,800 1,560 Climbing FlightAware ADS-B (KINT)
12:21AM 35.7388 -79.9931 258° West 453 521 27,700 1,380 Climbing FlightAware ADS-B (KINT)
12:22AM 35.7355 -80.0870 283° West 444 511 28,700 1,860 Climbing FlightAware ADS-B (KINT)
12:23AM 35.7650 -80.1846 293° West 431 496 30,200 2,100 Climbing FlightAware ADS-B (KINT)
12:23AM 35.7968 -80.2763 293° West 423 487 31,600 1,320 Climbing FlightAware ADS-B (KINT)
12:24AM 35.8272 -80.3646 293° West 422 486 32,000 300 Climbing FlightAware ADS-B (KINT)
12:25AM 35.8569 -80.4527 293° West 415 478 32,000  Level FlightAware ADS-B (KINT)
12:25AM 35.8846 -80.5324 293° West 406 467 32,000  Level FlightAware ADS-B (KINT)
12:26AM 35.9161 -80.6259 293° West 404 465 32,000  Level FlightAware ADS-B (KINT)
12:27AM 35.9439 -80.7069 293° West 406 467 32,000  Level FlightAware ADS-B (KINT)
12:27AM 35.9620 -80.7601 293° West 405 466 32,000  Level FlightAware ADS-B (KINT)
12:28AM 35.9993 -80.8712 293° West 406 467 32,000  Level FlightAware ADS-B (KINT)
12:29AM 36.0275 -80.9545 293° West 406 467 32,000  Level FlightAware ADS-B (KINT)
12:29AM 36.0588 -81.0487 292° West 405 466 32,000  Level FlightAware ADS-B (KINT)
12:30AM 36.0835 -81.1211 292° West 404 465 32,000  Level FlightAware ADS-B (KINT)
12:30AM 36.1165 -81.2163 298° West 403 464 32,000  Level FlightAware ADS-B (KINT)
12:31AM 36.1533 -81.3018 298° West 403 464 32,000  Level FlightAware ADS-B (KINT)
12:32AM 36.1848 -81.3751 298° West 404 465 32,000  Level FlightAware ADS-B (KINT)
12:33AM 36.2419 -81.5069 298° West 402 463 32,000  Level Indianapolis Center
12:34AM 36.2942 -81.6308 298° West 402 463 32,000  Level Indianapolis Center
12:35AM 36.3481 -81.7539 299° West 402 463 32,000  Level Indianapolis Center
12:36AM 36.4000 -81.8753 298° West 402 463 32,000  Level Indianapolis Center
12:37AM 36.4522 -81.9983 298° West 402 463 32,000  Level Indianapolis Center
12:38AM 36.5044 -82.1203 298° West 402 463 32,000  Level Indianapolis Center
12:39AM 36.5564 -82.2431 298° West 401 461 32,000  Level Indianapolis Center
12:40AM 36.6083 -82.3650 298° West 401 461 32,000  Level Indianapolis Center
12:41AM 36.6589 -82.4867 297° West 401 461 32,000  Level Indianapolis Center
12:42AM 36.7094 -82.6083 297° West 397 457 32,000  Level Indianapolis Center
12:43AM 36.7600 -82.7308 297° West 397 457 32,000  Level Indianapolis Center
12:44AM 36.8100 -82.8547 297° West 397 457 32,000  Level Indianapolis Center
12:45AM 36.8633 -82.9831 297° West 405 466 32,000  Level Indianapolis Center
12:46AM 36.9158 -83.1061 298° West 399 459 32,000  Level Indianapolis Center
12:47AM 36.9664 -83.2294 297° West 397 457 32,000  Level Indianapolis Center
12:48AM 37.0169 -83.3519 297° West 397 457 32,000  Level Indianapolis Center
12:49AM 37.0664 -83.4744 297° West 397 457 32,000 -1,080 Level Indianapolis Center
12:54AM 37.3378 -84.1463 297° West 409 471 25,500 -1,380 Descending FlightAware ADS-B
12:55AM 37.3886 -84.2736 296° West 393 452 23,500 -1,980 Descending FlightAware ADS-B
12:56AM 37.4378 -84.4000 297° West 380 437 21,500 -2,220 Descending FlightAware ADS-B
12:57AM 37.4889 -84.5293 296° West 390 449 18,900 -2,400 Descending FlightAware ADS-B
12:59AM 37.5451 -84.6721 296° West 372 428 16,100 -1,740 Descending FlightAware ADS-B
01:00AM 37.6022 -84.8180 296° West 366 421 14,700 -1,140 Descending FlightAware ADS-B
01:01AM 37.5644 -84.7222 296° West 367 422 13,800 -1,320 Descending FlightAware ADS-B (KCVG)
01:02AM 37.7052 -85.0227 313° West 302 348 12,200 -1,320 Descending FlightAware ADS-B
01:03AM 37.7599 -85.0985 312° West 288 331 10,900 -1,140 Descending FlightAware ADS-B
01:04AM 37.8196 -85.1995 296° West 287 330 9,600 -1,020 Descending FlightAware ADS-B
01:05AM 37.8474 -85.2901 285° West 267 307 8,600 -1,140 Descending FlightAware ADS-B
01:06AM 37.8664 -85.3807 286° West 257 296 7,400 -1,140 Descending FlightAware ADS-B
01:07AM 37.8943 -85.4588 296° West 238 274 6,400 -1,020 Descending FlightAware ADS-B
01:08AM 37.9220 -85.5308 296° West 225 259 5,400 -1,200 Descending FlightAware ADS-B
01:09AM 37.9288 -85.6062 256° West 227 261 4,100 -720 Descending FlightAware ADS-B
01:10AM 37.9501 -85.6582 14° North 184 212 4,000 -60 Descending FlightAware ADS-B
01:11AM 37.9980 -85.6695 349° North 193 222 4,000 -660 Level FlightAware ADS-B
01:12AM 38.0528 -85.6853 345° North 191 220 2,700 -1,200 Descending FlightAware ADS-B
01:13AM 38.1024 -85.7027 346° North 167 192 1,700 -900 Descending FlightAware ADS-B
01:14AM 38.1390 -85.7148 345° North 140 161 1,000 -360 Descending FlightAware ADS-B
01:15AM 38.1806 -85.7258 345° North 171 197 1,000  Level Indianapolis Center
01:17AM 38.1667 -85.7333 208° Southwest  Level FlightAware Approximate